Stoke-on-Trent, United Kingdom
Current Conditions -  °F | °C
As of 5:20 AM on Friday 19 Dec 2014 (Local Time) from EGCC Reporting Station
Scattered Clouds Scattered Clouds  
Wind Chill: 37°   Ceiling: Unl
Heat Index: 45°   Visibility: 6mi
Dew Point: 37°   Wind: 18mph
Humidity: 76%   Direction: 280°W
Pressure: 29.74"   Gusts: NA
Location:  53°N, 2.18°W
Report Text: EGCC 190420Z 28016KT 9999 SCT047 07/03 Q1007 NOSIG
Loading
Personal Weather Stations






























Interactive Weather Map New forecast layout! Learn more

10-Day Weather Forecast

Advertisements
Track Severe Weather on mobile